Time;durP1;ratioP1;P1;durP2;ratioP2;P2;SDS_P1;SDS_P2;PMS_P1;PMS_P2;Temp;Humidity;BMP_temperature;BMP_pressure;BME280_temperature;BME280_humidity;BME280_pressure;Samples;Min_cycle;Max_cycle;Signal;HPM_P1;HPM_P2
2024/03/20 00:01:06;;;;;;;;;;;;;;;;;;4973179;28;19975;-86
2024/03/20 00:03:33;;;;;;;;;;;;;;;;;;4974925;28;19960;-85
2024/03/20 00:06:00;;;;;;;;;;;;;;;;;;4974899;28;19930;-85
2024/03/20 00:08:27;;;;;;;;;;;;;;;;;;4973901;28;19957;-85
2024/03/20 00:10:55;;;;;;;;;;;;;;;;;;4978495;28;20373;-86
2024/03/20 00:13:23;;;;;;;;;;;;;;;;;;4972947;28;20020;-85
2024/03/20 00:15:50;;;;;;;;;;;;;;;;;;4973940;28;19962;-85
2024/03/20 00:18:17;;;;;;;;;;;;;;;;;;4973372;28;19949;-86
2024/03/20 00:20:44;;;;;;;;;;;;;;;;;;4972615;28;19936;-86
2024/03/20 00:23:11;;;;;;;;;;;;;;;;;;5000121;28;19972;-85
2024/03/20 00:25:38;;;;;;;;;;;;;;;;;;4972682;28;19930;-85
2024/03/20 00:28:05;;;;;;;;;;;;;;;;;;5017701;28;20016;-85
2024/03/20 00:30:32;;;;;;;;;;;;;;;;;;4995509;28;19938;-84
2024/03/20 00:32:59;;;;;;;;;;;;;;;;;;4978475;28;19930;-85
2024/03/20 00:35:26;;;;;;;;;;;;;;;;;;4977877;28;19934;-85
2024/03/20 00:37:54;;;;;;;;;;;;;;;;;;4973405;28;19937;-85
2024/03/20 00:40:21;;;;;;;;;;;;;;;;;;4967554;28;19929;-85
2024/03/20 00:42:48;;;;;;;;;;;;;;;;;;4969701;28;19930;-85
2024/03/20 00:45:15;;;;;;;;;;;;;;;;;;4962848;28;19933;-84
2024/03/20 00:47:42;;;;;;;;;;;;;;;;;;4971969;28;19926;-84
2024/03/20 00:50:10;;;;;;;;;;;;;;;;;;4972661;28;20023;-83
2024/03/20 00:52:37;;;;;;;;;;;;;;;;;;4972740;28;19964;-85
2024/03/20 00:55:04;;;;;;;;;;;;;;;;;;4964207;28;19936;-84
2024/03/20 00:57:32;;;;;;;;;;;;;;;;;;4971432;28;19969;-85
2024/03/20 00:59:59;;;;;;;;;;;;;;;;;;4967726;28;19926;-85
2024/03/20 01:02:26;;;;;;;;;;;;;;;;;;4964882;28;19936;-84
2024/03/20 01:04:53;;;;;;;;;;;;;;;;;;4995356;28;19929;-86
2024/03/20 01:07:20;;;;;;;;;;;;;;;;;;5005387;28;19961;-86
2024/03/20 01:09:47;;;;;;;;;;;;;;;;;;4971380;28;19969;-85
2024/03/20 01:12:14;;;;;;;;;;;;;;;;;;4970667;28;20008;-84
2024/03/20 01:14:41;;;;;;;;;;;;;;;;;;4971148;28;19984;-85
2024/03/20 01:17:08;;;;;;;;;;;;;;;;;;4971098;28;19930;-85
2024/03/20 01:19:35;;;;;;;;;;;;;;;;;;4975167;28;20028;-85
2024/03/20 01:22:02;;;;;;;;;;;;;;;;;;4972348;28;19934;-85
2024/03/20 01:24:29;;;;;;;;;;;;;;;;;;4972708;28;19930;-85
2024/03/20 01:26:56;;;;;;;;;;;;;;;;;;4971699;28;19930;-86
2024/03/20 01:29:23;;;;;;;;;;;;;;;;;;4963862;28;19926;-84
2024/03/20 01:31:50;;;;;;;;;;;;;;;;;;4978037;28;19949;-85
2024/03/20 01:34:17;;;;;;;;;;;;;;;;;;4974529;28;19983;-86
2024/03/20 01:36:44;;;;;;;;;;;;;;;;;;4972123;28;19934;-85
2024/03/20 01:39:12;;;;;;;;;;;;;;;;;;4972334;28;19980;-86
2024/03/20 01:41:39;;;;;;;;;;;;;;;;;;4973866;28;19926;-84
2024/03/20 01:44:06;;;;;;;;;;;;;;;;;;4970018;28;20025;-85
2024/03/20 01:46:33;;;;;;;;;;;;;;;;;;4965004;28;19975;-85
2024/03/20 01:49:00;;;;;;;;;;;;;;;;;;4968455;28;19999;-85
2024/03/20 01:51:27;;;;;;;;;;;;;;;;;;4969908;28;19926;-84
2024/03/20 01:53:54;;;;;;;;;;;;;;;;;;4969862;28;20015;-82
2024/03/20 01:56:22;;;;;;;;;;;;;;;;;;4964690;28;20367;-84
2024/03/20 01:58:49;;;;;;;;;;;;;;;;;;4966050;28;19958;-84
2024/03/20 02:01:16;;;;;;;;;;;;;;;;;;5006534;28;20363;-83
2024/03/20 02:03:43;;;;;;;;;;;;;;;;;;4966408;28;19977;-84
2024/03/20 02:06:10;;;;;;;;;;;;;;;;;;4969321;28;20448;-85
2024/03/20 02:08:38;;;;;;;;;;;;;;;;;;4969187;28;19930;-85
2024/03/20 02:11:05;;;;;;;;;;;;;;;;;;4971130;28;19930;-85
2024/03/20 02:13:32;;;;;;;;;;;;;;;;;;5012475;28;19970;-84
2024/03/20 02:15:59;;;;;;;;;;;;;;;;;;4970385;28;19930;-84
2024/03/20 02:18:26;;;;;;;;;;;;;;;;;;4969880;28;19936;-85
2024/03/20 02:20:53;;;;;;;;;;;;;;;;;;4966166;28;19961;-86
2024/03/20 02:23:20;;;;;;;;;;;;;;;;;;4970685;28;20353;-84
2024/03/20 02:25:47;;;;;;;;;;;;;;;;;;4974168;28;19924;-84
2024/03/20 02:28:14;;;;;;;;;;;;;;;;;;4970292;28;19930;-84
2024/03/20 02:30:41;;;;;;;;;;;;;;;;;;4989403;28;19925;-84
2024/03/20 02:33:08;;;;;;;;;;;;;;;;;;5017825;28;19954;-84
2024/03/20 02:35:35;;;;;;;;;;;;;;;;;;4968539;28;19930;-84
2024/03/20 02:38:02;;;;;;;;;;;;;;;;;;4984703;28;19934;-85
2024/03/20 02:40:29;;;;;;;;;;;;;;;;;;4971315;28;19988;-85
2024/03/20 02:42:57;;;;;;;;;;;;;;;;;;4969344;28;19979;-85
2024/03/20 02:45:24;;;;;;;;;;;;;;;;;;4963728;28;20479;-85
2024/03/20 02:47:51;;;;;;;;;;;;;;;;;;4967427;28;19965;-85
2024/03/20 02:50:18;;;;;;;;;;;;;;;;;;4967940;28;19965;-85
2024/03/20 02:52:45;;;;;;;;;;;;;;;;;;4958692;28;19930;-84
2024/03/20 02:55:12;;;;;;;;;;;;;;;;;;4971801;28;19991;-85
2024/03/20 02:57:39;;;;;;;;;;;;;;;;;;4967784;28;20662;-85
2024/03/20 03:00:07;;;;;;;;;;;;;;;;;;4970826;28;19938;-85
2024/03/20 03:02:34;;;;;;;;;;;;;;;;;;4971312;28;19930;-86
2024/03/20 03:05:01;;;;;;;;;;;;;;;;;;4971841;28;19934;-86
2024/03/20 03:07:28;;;;;;;;;;;;;;;;;;4971674;28;19984;-86
2024/03/20 03:09:55;;;;;;;;;;;;;;;;;;4971683;28;19982;-85
2024/03/20 03:12:22;;;;;;;;;;;;;;;;;;4971656;28;19972;-86
2024/03/20 03:14:49;;;;;;;;;;;;;;;;;;4971790;28;19930;-85
2024/03/20 03:17:17;;;;;;;;;;;;;;;;;;4972682;28;19983;-85
2024/03/20 03:19:44;;;;;;;;;;;;;;;;;;4974251;28;19941;-86
2024/03/20 03:22:11;;;;;;;;;;;;;;;;;;4971738;28;19930;-84
2024/03/20 03:24:38;;;;;;;;;;;;;;;;;;4972376;28;19936;-84
2024/03/20 03:27:05;;;;;;;;;;;;;;;;;;4971529;28;19931;-86
2024/03/20 03:29:32;;;;;;;;;;;;;;;;;;5003950;28;19929;-86
2024/03/20 03:31:59;;;;;;;;;;;;;;;;;;4974632;28;19991;-85
2024/03/20 03:34:27;;;;;;;;;;;;;;;;;;4971990;28;19992;-86
2024/03/20 03:36:54;;;;;;;;;;;;;;;;;;4970657;28;19970;-85
2024/03/20 03:39:21;;;;;;;;;;;;;;;;;;4961989;28;19980;-85
2024/03/20 03:41:48;;;;;;;;;;;;;;;;;;4969579;28;20032;-86
2024/03/20 03:44:15;;;;;;;;;;;;;;;;;;4973166;28;19930;-87
2024/03/20 03:46:42;;;;;;;;;;;;;;;;;;4971871;28;19930;-87
2024/03/20 03:49:09;;;;;;;;;;;;;;;;;;4972852;28;19980;-87
2024/03/20 03:51:36;;;;;;;;;;;;;;;;;;4973131;28;19926;-86
2024/03/20 03:54:04;;;;;;;;;;;;;;;;;;4972524;28;19977;-87
2024/03/20 03:56:31;;;;;;;;;;;;;;;;;;4971721;28;19936;-87
2024/03/20 03:58:58;;;;;;;;;;;;;;;;;;4972515;28;19976;-87
2024/03/20 04:01:25;;;;;;;;;;;;;;;;;;4985094;28;19941;-86
2024/03/20 04:03:52;;;;;;;;;;;;;;;;;;5004232;28;19995;-85
2024/03/20 04:06:19;;;;;;;;;;;;;;;;;;4974902;28;19953;-86
2024/03/20 04:08:46;;;;;;;;;;;;;;;;;;4971988;28;19936;-87
2024/03/20 04:11:13;;;;;;;;;;;;;;;;;;4970883;28;19978;-87
2024/03/20 04:13:40;;;;;;;;;;;;;;;;;;4971978;28;19977;-87
2024/03/20 04:16:08;;;;;;;;;;;;;;;;;;4972371;28;19934;-87
2024/03/20 04:18:35;;;;;;;;;;;;;;;;;;4972283;28;19934;-87
2024/03/20 04:21:02;;;;;;;;;;;;;;;;;;4969544;28;19948;-85
2024/03/20 04:23:29;;;;;;;;;;;;;;;;;;4975100;28;19930;-84
2024/03/20 04:25:56;;;;;;;;;;;;;;;;;;4971956;28;19930;-85
2024/03/20 04:28:23;;;;;;;;;;;;;;;;;;4973118;28;19930;-85
2024/03/20 04:30:52;;;;;;;;;;;;;;;;;;4971806;28;20445;-85
2024/03/20 04:33:20;;;;;;;;;;;;;;;;;;4973618;28;19931;-87
2024/03/20 04:35:47;;;;;;;;;;;;;;;;;;4971976;28;19970;-86
2024/03/20 04:38:14;;;;;;;;;;;;;;;;;;4964557;28;19939;-86
2024/03/20 04:40:41;;;;;;;;;;;;;;;;;;4963347;28;19930;-86
2024/03/20 04:43:08;;;;;;;;;;;;;;;;;;4970993;28;20384;-86
2024/03/20 04:45:35;;;;;;;;;;;;;;;;;;4971458;28;19926;-85
2024/03/20 04:48:02;;;;;;;;;;;;;;;;;;4972371;28;19983;-86
2024/03/20 04:50:29;;;;;;;;;;;;;;;;;;4970921;28;19937;-86
2024/03/20 04:52:56;;;;;;;;;;;;;;;;;;4971848;28;19930;-86
2024/03/20 04:55:23;;;;;;;;;;;;;;;;;;4963717;28;19976;-86
2024/03/20 04:57:50;;;;;;;;;;;;;;;;;;4970088;28;19930;-86
2024/03/20 05:00:17;;;;;;;;;;;;;;;;;;4971889;28;20449;-85
2024/03/20 05:02:45;;;;;;;;;;;;;;;;;;4971239;28;19937;-86
2024/03/20 05:05:12;;;;;;;;;;;;;;;;;;4971210;28;20038;-86
2024/03/20 05:07:39;;;;;;;;;;;;;;;;;;4970836;28;19936;-85
2024/03/20 05:10:06;;;;;;;;;;;;;;;;;;4970541;28;19937;-86
2024/03/20 05:12:33;;;;;;;;;;;;;;;;;;4971469;28;19926;-86
2024/03/20 05:15:00;;;;;;;;;;;;;;;;;;4971086;28;20010;-85
2024/03/20 05:17:30;;;;;;;;;;;;;;;;;;4972054;28;19983;-84
2024/03/20 05:19:57;;;;;;;;;;;;;;;;;;4971599;28;19937;-80
2024/03/20 05:22:24;;;;;;;;;;;;;;;;;;4970607;28;19934;-84
2024/03/20 05:24:51;;;;;;;;;;;;;;;;;;4970387;28;19930;-85
2024/03/20 05:27:17;;;;;;;;;;;;;;;;;;4957422;28;19974;-84
2024/03/20 05:29:44;;;;;;;;;;;;;;;;;;4970737;28;20464;-84
2024/03/20 05:32:11;;;;;;;;;;;;;;;;;;4970938;28;19934;-84
2024/03/20 05:34:37;;;;;;;;;;;;;;;;;;4970662;28;19999;-84
2024/03/20 05:37:04;;;;;;;;;;;;;;;;;;4970930;28;19930;-84
2024/03/20 05:39:30;;;;;;;;;;;;;;;;;;4971107;28;20000;-86
2024/03/20 05:41:58;;;;;;;;;;;;;;;;;;4971535;28;20373;-85
2024/03/20 05:44:24;;;;;;;;;;;;;;;;;;4971195;28;20355;-85
2024/03/20 05:46:51;;;;;;;;;;;;;;;;;;4961213;28;19937;-87
2024/03/20 05:49:17;;;;;;;;;;;;;;;;;;4969147;28;19931;-82
2024/03/20 05:51:44;;;;;;;;;;;;;;;;;;4970901;28;19932;-82
2024/03/20 05:54:10;;;;;;;;;;;;;;;;;;4955777;28;20051;-80
2024/03/20 05:56:37;;;;;;;;;;;;;;;;;;4971262;28;20001;-83
2024/03/20 05:59:03;;;;;;;;;;;;;;;;;;4971454;28;19930;-84
2024/03/20 06:01:31;;;;;;;;;;;;;;;;;;4963235;28;19930;-85
2024/03/20 06:03:57;;;;;;;;;;;;;;;;;;4970774;28;19930;-81
2024/03/20 06:06:24;;;;;;;;;;;;;;;;;;4962441;28;19926;-85
2024/03/20 06:08:50;;;;;;;;;;;;;;;;;;4972687;28;19938;-84
2024/03/20 06:11:18;;;;;;;;;;;;;;;;;;4974461;28;19930;-85
2024/03/20 06:13:44;;;;;;;;;;;;;;;;;;4972129;28;19927;-85
2024/03/20 06:16:12;;;;;;;;;;;;;;;;;;4974061;28;19930;-86
2024/03/20 06:18:42;;;;;;;;;;;;;;;;;;4964782;28;20049;-82
2024/03/20 06:21:10;;;;;;;;;;;;;;;;;;4961524;28;20009;-83
2024/03/20 06:23:36;;;;;;;;;;;;;;;;;;4958788;28;19930;-85
2024/03/20 06:26:03;;;;;;;;;;;;;;;;;;4965400;28;19930;-85
2024/03/20 06:28:30;;;;;;;;;;;;;;;;;;4977206;28;19968;-85
2024/03/20 06:30:57;;;;;;;;;;;;;;;;;;4966577;28;19964;-85
2024/03/20 06:33:23;;;;;;;;;;;;;;;;;;4968686;28;20041;-85
2024/03/20 06:35:51;;;;;;;;;;;;;;;;;;4969301;28;19956;-83
2024/03/20 06:38:17;;;;;;;;;;;;;;;;;;4964181;28;20056;-83
2024/03/20 06:40:44;;;;;;;;;;;;;;;;;;4959174;28;20226;-85
2024/03/20 06:43:11;;;;;;;;;;;;;;;;;;4963757;28;19983;-84
2024/03/20 06:45:42;;;;;;;;;;;;;;;;;;4966428;28;20300;-84
2024/03/20 06:48:08;;;;;;;;;;;;;;;;;;4962977;28;19927;-85
2024/03/20 06:50:36;;;;;;;;;;;;;;;;;;4967453;28;20296;-83
2024/03/20 06:53:04;;;;;;;;;;;;;;;;;;4973581;28;19995;-82
2024/03/20 06:55:31;;;;;;;;;;;;;;;;;;4969683;28;19934;-83
2024/03/20 06:57:57;;;;;;;;;;;;;;;;;;4972277;28;19930;-85
2024/03/20 07:00:25;;;;;;;;;;;;;;;;;;4979730;28;19934;-82
2024/03/20 07:02:53;;;;;;;;;;;;;;;;;;4967958;28;20013;-84
2024/03/20 07:05:20;;;;;;;;;;;;;;;;;;4989537;28;20292;-83
2024/03/20 07:07:47;;;;;;;;;;;;;;;;;;4972558;28;19937;-80
2024/03/20 07:10:14;;;;;;;;;;;;;;;;;;4963010;28;20377;-82
2024/03/20 07:12:40;;;;;;;;;;;;;;;;;;4962460;28;20712;-83
2024/03/20 07:15:07;;;;;;;;;;;;;;;;;;4964115;28;19926;-84
2024/03/20 07:17:33;;;;;;;;;;;;;;;;;;4962824;28;19927;-83
2024/03/20 07:20:01;;;;;;;;;;;;;;;;;;4967138;28;19926;-84
2024/03/20 07:22:27;;;;;;;;;;;;;;;;;;4962631;28;19977;-83
2024/03/20 07:24:54;;;;;;;;;;;;;;;;;;4963894;28;20030;-83
2024/03/20 07:27:20;;;;;;;;;;;;;;;;;;4970297;28;19980;-78
2024/03/20 07:29:48;;;;;;;;;;;;;;;;;;4955795;28;19930;-82
2024/03/20 07:32:15;;;;;;;;;;;;;;;;;;4952707;28;19941;-82
2024/03/20 07:34:42;;;;;;;;;;;;;;;;;;4966360;28;20064;-80
2024/03/20 07:37:08;;;;;;;;;;;;;;;;;;4971175;28;19931;-82
2024/03/20 07:39:36;;;;;;;;;;;;;;;;;;4971907;28;19945;-78
2024/03/20 07:42:02;;;;;;;;;;;;;;;;;;4972771;28;19938;-82
2024/03/20 07:44:29;;;;;;;;;;;;;;;;;;4963943;28;20355;-82
2024/03/20 07:46:55;;;;;;;;;;;;;;;;;;4964213;28;19934;-83
2024/03/20 07:49:22;;;;;;;;;;;;;;;;;;4963639;28;19922;-82
2024/03/20 07:51:49;;;;;;;;;;;;;;;;;;4968387;28;19930;-81
2024/03/20 07:54:16;;;;;;;;;;;;;;;;;;4962948;28;19948;-82
2024/03/20 07:56:42;;;;;;;;;;;;;;;;;;4966700;28;20767;-80
2024/03/20 07:59:09;;;;;;;;;;;;;;;;;;4968439;28;20294;-82
2024/03/20 08:01:38;;;;;;;;;;;;;;;;;;4965672;28;19995;-82
2024/03/20 08:04:05;;;;;;;;;;;;;;;;;;4994091;28;19932;-83
2024/03/20 08:06:32;;;;;;;;;;;;;;;;;;4966548;28;19949;-81
2024/03/20 08:08:58;;;;;;;;;;;;;;;;;;4968687;28;19926;-81
2024/03/20 08:11:26;;;;;;;;;;;;;;;;;;4967780;28;20385;-81
2024/03/20 08:13:52;;;;;;;;;;;;;;;;;;4969225;28;20022;-82
2024/03/20 08:16:19;;;;;;;;;;;;;;;;;;4965314;28;19930;-82
2024/03/20 08:18:46;;;;;;;;;;;;;;;;;;4962065;28;20385;-81
2024/03/20 08:21:15;;;;;;;;;;;;;;;;;;4957649;28;20393;-81
2024/03/20 08:23:41;;;;;;;;;;;;;;;;;;4963875;28;20377;-83
2024/03/20 08:26:08;;;;;;;;;;;;;;;;;;4968702;28;19930;-83
2024/03/20 08:28:34;;;;;;;;;;;;;;;;;;4968937;28;19969;-83
2024/03/20 08:31:01;;;;;;;;;;;;;;;;;;4971056;28;20029;-81
2024/03/20 08:33:27;;;;;;;;;;;;;;;;;;4966620;28;19930;-82
2024/03/20 08:35:54;;;;;;;;;;;;;;;;;;4965419;28;19934;-83
2024/03/20 08:38:20;;;;;;;;;;;;;;;;;;4968234;28;20011;-82
2024/03/20 08:40:47;;;;;;;;;;;;;;;;;;4958877;28;19942;-82
2024/03/20 08:43:13;;;;;;;;;;;;;;;;;;4964745;28;20486;-82
2024/03/20 08:45:40;;;;;;;;;;;;;;;;;;4972073;28;19930;-81
2024/03/20 08:48:07;;;;;;;;;;;;;;;;;;4968543;28;19953;-79
2024/03/20 08:50:34;;;;;;;;;;;;;;;;;;4970820;28;19976;-81
2024/03/20 08:53:02;;;;;;;;;;;;;;;;;;4960341;28;19946;-81
2024/03/20 08:55:29;;;;;;;;;;;;;;;;;;4960753;28;19972;-80
2024/03/20 08:57:55;;;;;;;;;;;;;;;;;;4960341;28;19934;-81
2024/03/20 09:00:22;;;;;;;;;;;;;;;;;;4970703;28;19930;-80
2024/03/20 09:02:48;;;;;;;;;;;;;;;;;;4956477;28;19934;-80
2024/03/20 09:05:15;;;;;;;;;;;;;;;;;;4962358;28;20025;-80
2024/03/20 09:07:41;;;;;;;;;;;;;;;;;;4962539;28;19971;-80
2024/03/20 09:10:08;;;;;;;;;;;;;;;;;;4965799;28;19927;-82
2024/03/20 09:12:35;;;;;;;;;;;;;;;;;;4966035;28;19969;-83
2024/03/20 09:15:01;;;;;;;;;;;;;;;;;;4969609;28;19983;-83
2024/03/20 09:17:28;;;;;;;;;;;;;;;;;;4967890;28;20373;-83
2024/03/20 09:19:54;;;;;;;;;;;;;;;;;;4964534;28;20216;-82
2024/03/20 09:22:21;;;;;;;;;;;;;;;;;;4967118;28;20312;-83
2024/03/20 09:24:48;;;;;;;;;;;;;;;;;;4966307;28;19973;-79
2024/03/20 09:27:15;;;;;;;;;;;;;;;;;;4971749;28;19987;-81
2024/03/20 09:29:41;;;;;;;;;;;;;;;;;;4959657;28;19979;-80
2024/03/20 09:32:08;;;;;;;;;;;;;;;;;;4964981;28;19949;-82
2024/03/20 09:34:36;;;;;;;;;;;;;;;;;;4963345;28;19977;-82
2024/03/20 09:37:03;;;;;;;;;;;;;;;;;;4959831;28;20394;-82
2024/03/20 09:39:29;;;;;;;;;;;;;;;;;;4968963;28;19970;-82
2024/03/20 09:41:56;;;;;;;;;;;;;;;;;;4961876;28;19930;-81
2024/03/20 09:44:22;;;;;;;;;;;;;;;;;;4970550;28;19969;-81
2024/03/20 09:46:49;;;;;;;;;;;;;;;;;;4962980;28;19930;-81
2024/03/20 09:49:15;;;;;;;;;;;;;;;;;;4962873;28;20022;-81
2024/03/20 09:51:42;;;;;;;;;;;;;;;;;;4968397;28;19940;-84
2024/03/20 09:54:08;;;;;;;;;;;;;;;;;;4962809;28;20021;-82
2024/03/20 09:56:35;;;;;;;;;;;;;;;;;;4962144;28;19937;-79
2024/03/20 09:59:02;;;;;;;;;;;;;;;;;;4961828;28;19966;-81
2024/03/20 10:01:29;;;;;;;;;;;;;;;;;;4961131;28;20003;-82
2024/03/20 10:03:55;;;;;;;;;;;;;;;;;;4961678;28;20025;-82
2024/03/20 10:06:22;;;;;;;;;;;;;;;;;;4958876;28;19976;-82
2024/03/20 10:08:48;;;;;;;;;;;;;;;;;;4957082;28;19937;-84
2024/03/20 10:11:15;;;;;;;;;;;;;;;;;;4965783;28;19930;-83
2024/03/20 10:13:42;;;;;;;;;;;;;;;;;;4967085;28;19930;-83
2024/03/20 10:16:09;;;;;;;;;;;;;;;;;;4969791;28;20309;-83
2024/03/20 10:18:36;;;;;;;;;;;;;;;;;;4970094;28;20702;-77
2024/03/20 10:21:03;;;;;;;;;;;;;;;;;;4968356;28;19949;-82
2024/03/20 10:23:29;;;;;;;;;;;;;;;;;;4973264;28;20339;-83
2024/03/20 10:25:56;;;;;;;;;;;;;;;;;;4970067;28;20698;-84
2024/03/20 10:28:23;;;;;;;;;;;;;;;;;;4962461;28;19978;-82
2024/03/20 10:30:51;;;;;;;;;;;;;;;;;;4964611;28;19942;-82
2024/03/20 10:33:17;;;;;;;;;;;;;;;;;;4965479;28;19926;-84
2024/03/20 10:35:44;;;;;;;;;;;;;;;;;;4965686;28;19930;-84
2024/03/20 10:38:10;;;;;;;;;;;;;;;;;;4987150;28;20373;-82
2024/03/20 10:40:39;;;;;;;;;;;;;;;;;;4956519;28;19944;-82
2024/03/20 10:43:05;;;;;;;;;;;;;;;;;;4966602;28;20507;-82
2024/03/20 10:45:32;;;;;;;;;;;;;;;;;;4968443;28;20349;-82
2024/03/20 10:47:58;;;;;;;;;;;;;;;;;;4963915;28;19973;-74
2024/03/20 10:50:26;;;;;;;;;;;;;;;;;;4966527;28;19945;-74
2024/03/20 10:52:52;;;;;;;;;;;;;;;;;;4962172;28;20017;-75
2024/03/20 10:55:19;;;;;;;;;;;;;;;;;;4963437;28;19930;-74
2024/03/20 10:57:45;;;;;;;;;;;;;;;;;;4963845;28;19948;-75
2024/03/20 11:00:13;;;;;;;;;;;;;;;;;;4960450;28;19930;-75
2024/03/20 11:02:40;;;;;;;;;;;;;;;;;;4957508;28;20021;-74
2024/03/20 11:05:07;;;;;;;;;;;;;;;;;;4961849;28;19969;-73
2024/03/20 11:07:34;;;;;;;;;;;;;;;;;;4961366;28;20450;-75
2024/03/20 11:10:01;;;;;;;;;;;;;;;;;;4965089;28;19949;-73
2024/03/20 11:12:27;;;;;;;;;;;;;;;;;;4958672;28;20059;-73
2024/03/20 11:14:54;;;;;;;;;;;;;;;;;;4959411;28;19930;-74
2024/03/20 11:17:21;;;;;;;;;;;;;;;;;;4961570;28;20314;-76
2024/03/20 11:19:48;;;;;;;;;;;;;;;;;;4965838;28;19942;-78
2024/03/20 11:22:14;;;;;;;;;;;;;;;;;;4972212;28;19940;-81
2024/03/20 11:24:41;;;;;;;;;;;;;;;;;;4970187;28;20041;-81
2024/03/20 11:27:14;;;;;;;;;;;;;;;;;;4957841;28;19961;-83
2024/03/20 11:29:41;;;;;;;;;;;;;;;;;;4963619;28;19931;-82
2024/03/20 11:32:07;;;;;;;;;;;;;;;;;;4969418;28;19995;-81
2024/03/20 11:34:35;;;;;;;;;;;;;;;;;;4964715;28;20381;-80
2024/03/20 11:37:01;;;;;;;;;;;;;;;;;;4957130;28;19937;-83
2024/03/20 11:39:29;;;;;;;;;;;;;;;;;;4970515;28;19926;-82
2024/03/20 11:41:55;;;;;;;;;;;;;;;;;;4967693;28;19930;-84
2024/03/20 11:44:22;;;;;;;;;;;;;;;;;;4963908;28;19931;-83
2024/03/20 11:46:48;;;;;;;;;;;;;;;;;;4963552;28;19944;-81
2024/03/20 11:49:15;;;;;;;;;;;;;;;;;;4965925;28;19930;-83
2024/03/20 11:51:41;;;;;;;;;;;;;;;;;;4957378;28;20405;-79
2024/03/20 11:54:08;;;;;;;;;;;;;;;;;;4963904;28;19934;-82
2024/03/20 11:56:35;;;;;;;;;;;;;;;;;;4962454;28;20733;-84
2024/03/20 11:59:02;;;;;;;;;;;;;;;;;;4966606;28;20278;-83
2024/03/20 12:01:28;;;;;;;;;;;;;;;;;;4969562;28;20404;-85
2024/03/20 12:03:55;;;;;;;;;;;;;;;;;;4960733;28;20396;-83
2024/03/20 12:06:23;;;;;;;;;;;;;;;;;;4960811;28;20003;-83
2024/03/20 12:08:50;;;;;;;;;;;;;;;;;;4978779;28;19930;-84
2024/03/20 12:11:18;;;;;;;;;;;;;;;;;;4962561;28;20084;-84
2024/03/20 12:13:46;;;;;;;;;;;;;;;;;;4960720;28;19930;-82
2024/03/20 12:16:14;;;;;;;;;;;;;;;;;;4966405;28;22445;-84
2024/03/20 12:18:41;;;;;;;;;;;;;;;;;;4965923;28;20034;-84
2024/03/20 12:21:07;;;;;;;;;;;;;;;;;;4954610;28;19992;-85
2024/03/20 12:23:34;;;;;;;;;;;;;;;;;;4970498;28;20333;-84
2024/03/20 12:26:00;;;;;;;;;;;;;;;;;;4971196;28;19952;-84
2024/03/20 12:28:27;;;;;;;;;;;;;;;;;;4966711;28;19997;-86
2024/03/20 12:30:53;;;;;;;;;;;;;;;;;;4972649;28;19948;-85
2024/03/20 12:33:21;;;;;;;;;;;;;;;;;;4969585;28;19926;-81
2024/03/20 12:35:47;;;;;;;;;;;;;;;;;;4964855;28;19977;-85
2024/03/20 12:38:14;;;;;;;;;;;;;;;;;;4958523;28;19984;-85
2024/03/20 12:40:40;;;;;;;;;;;;;;;;;;4967886;28;19983;-84
2024/03/20 12:43:08;;;;;;;;;;;;;;;;;;4969439;28;19934;-83
2024/03/20 12:45:34;;;;;;;;;;;;;;;;;;4963576;28;19934;-83
2024/03/20 12:48:01;;;;;;;;;;;;;;;;;;4971456;28;19933;-88
2024/03/20 12:50:27;;;;;;;;;;;;;;;;;;4970261;28;20793;-86
2024/03/20 12:52:54;;;;;;;;;;;;;;;;;;4984310;28;20270;-86
2024/03/20 12:55:20;;;;;;;;;;;;;;;;;;4971000;28;19979;-85
2024/03/20 12:57:47;;;;;;;;;;;;;;;;;;4971285;28;19930;-87
2024/03/20 13:00:16;;;;;;;;;;;;;;;;;;4968785;28;20279;-87
2024/03/20 13:02:43;;;;;;;;;;;;;;;;;;4959073;28;19930;-86
2024/03/20 13:05:09;;;;;;;;;;;;;;;;;;4962277;28;19976;-86
2024/03/20 13:07:37;;;;;;;;;;;;;;;;;;4967181;28;20001;-84
2024/03/20 13:10:03;;;;;;;;;;;;;;;;;;4967765;28;20016;-87
2024/03/20 13:12:30;;;;;;;;;;;;;;;;;;4960896;28;19926;-85
2024/03/20 13:14:56;;;;;;;;;;;;;;;;;;4957697;28;20363;-85
2024/03/20 13:17:23;;;;;;;;;;;;;;;;;;4981381;28;19960;-84
2024/03/20 13:19:50;;;;;;;;;;;;;;;;;;4962043;28;20342;-85
2024/03/20 13:22:17;;;;;;;;;;;;;;;;;;4967996;28;20363;-85
2024/03/20 13:24:43;;;;;;;;;;;;;;;;;;4968066;28;20313;-84
2024/03/20 13:27:11;;;;;;;;;;;;;;;;;;4969286;28;19961;-81
2024/03/20 13:29:43;;;;;;;;;;;;;;;;;;4960114;28;19941;-81
2024/03/20 13:32:10;;;;;;;;;;;;;;;;;;4955412;28;19937;-83
2024/03/20 13:34:37;;;;;;;;;;;;;;;;;;4970985;28;19937;-79
2024/03/20 13:37:09;;;;;;;;;;;;;;;;;;4967242;28;20260;-80
2024/03/20 13:39:44;;;;;;;;;;;;;;;;;;4952086;28;19930;-78
2024/03/20 13:42:19;;;;;;;;;;;;;;;;;;4967383;28;19984;-81
2024/03/20 13:44:45;;;;;;;;;;;;;;;;;;4962336;28;19930;-81
2024/03/20 13:47:13;;;;;;;;;;;;;;;;;;4958383;28;20008;-82
2024/03/20 13:49:39;;;;;;;;;;;;;;;;;;4965111;28;19930;-85
2024/03/20 13:52:06;;;;;;;;;;;;;;;;;;4966054;28;19930;-84
2024/03/20 13:54:32;;;;;;;;;;;;;;;;;;4964062;28;19983;-71
2024/03/20 13:56:59;;;;;;;;;;;;;;;;;;4993638;28;19928;-83
2024/03/20 13:59:25;;;;;;;;;;;;;;;;;;5011018;28;19981;-83
2024/03/20 14:01:52;;;;;;;;;;;;;;;;;;4988147;28;20384;-84
2024/03/20 14:04:18;;;;;;;;;;;;;;;;;;4995162;28;19937;-82
2024/03/20 14:06:45;;;;;;;;;;;;;;;;;;4985111;28;19989;-84
2024/03/20 14:09:13;;;;;;;;;;;;;;;;;;4959167;28;19977;-83
2024/03/20 14:11:40;;;;;;;;;;;;;;;;;;4967095;28;19930;-86
2024/03/20 14:14:06;;;;;;;;;;;;;;;;;;4960157;28;20455;-85
2024/03/20 14:16:34;;;;;;;;;;;;;;;;;;4956210;28;19982;-86
2024/03/20 14:19:00;;;;;;;;;;;;;;;;;;5011325;28;19930;-86
2024/03/20 14:21:27;;;;;;;;;;;;;;;;;;4968066;28;19930;-84
2024/03/20 14:23:53;;;;;;;;;;;;;;;;;;4984999;28;19934;-85
2024/03/20 14:26:21;;;;;;;;;;;;;;;;;;4959762;28;19938;-79
2024/03/20 14:28:47;;;;;;;;;;;;;;;;;;4969600;28;19937;-78
2024/03/20 14:31:14;;;;;;;;;;;;;;;;;;4962533;28;20016;-78
2024/03/20 14:33:40;;;;;;;;;;;;;;;;;;4972916;28;20475;-78
2024/03/20 14:36:10;;;;;;;;;;;;;;;;;;4965567;28;20285;-78
2024/03/20 14:38:36;;;;;;;;;;;;;;;;;;4956750;28;19973;-78
2024/03/20 14:41:03;;;;;;;;;;;;;;;;;;5010247;28;19961;-76
2024/03/20 14:43:29;;;;;;;;;;;;;;;;;;4979659;28;19937;-77
2024/03/20 14:45:59;;;;;;;;;;;;;;;;;;4957229;28;19930;-75
2024/03/20 14:48:25;;;;;;;;;;;;;;;;;;4966624;28;19961;-77
2024/03/20 14:50:53;;;;;;;;;;;;;;;;;;4974935;28;19952;-75
2024/03/20 14:53:19;;;;;;;;;;;;;;;;;;4965694;28;19992;-78
2024/03/20 14:55:46;;;;;;;;;;;;;;;;;;4961495;28;19930;-75
2024/03/20 14:58:12;;;;;;;;;;;;;;;;;;4969744;28;20541;-78
2024/03/20 15:00:40;;;;;;;;;;;;;;;;;;4962687;28;19938;-78
2024/03/20 15:03:10;;;;;;;;;;;;;;;;;;4961881;28;20053;-74
2024/03/20 15:05:37;;;;;;;;;;;;;;;;;;4958801;28;20664;-74
2024/03/20 15:08:03;;;;;;;;;;;;;;;;;;4965168;28;19961;-74
2024/03/20 15:10:30;;;;;;;;;;;;;;;;;;4972661;28;19934;-74
2024/03/20 15:12:56;;;;;;;;;;;;;;;;;;4960492;28;19934;-74
2024/03/20 15:15:23;;;;;;;;;;;;;;;;;;4967749;28;19977;-74
2024/03/20 15:17:50;;;;;;;;;;;;;;;;;;4966071;28;20007;-73
2024/03/20 15:20:17;;;;;;;;;;;;;;;;;;4958346;28;19957;-74
2024/03/20 15:22:43;;;;;;;;;;;;;;;;;;4972674;28;20435;-74
2024/03/20 15:25:10;;;;;;;;;;;;;;;;;;4964211;28;19939;-74
2024/03/20 15:27:36;;;;;;;;;;;;;;;;;;4967677;28;20313;-75
2024/03/20 15:30:03;;;;;;;;;;;;;;;;;;4958477;28;20353;-75
2024/03/20 15:32:29;;;;;;;;;;;;;;;;;;4971016;28;19974;-75
2024/03/20 15:34:56;;;;;;;;;;;;;;;;;;4967503;28;20439;-76
2024/03/20 15:37:22;;;;;;;;;;;;;;;;;;4967102;28;19965;-74
2024/03/20 15:39:49;;;;;;;;;;;;;;;;;;4960358;28;19952;-75
2024/03/20 15:42:15;;;;;;;;;;;;;;;;;;4971970;28;20686;-76
2024/03/20 15:44:42;;;;;;;;;;;;;;;;;;4963624;28;19930;-75
2024/03/20 15:47:08;;;;;;;;;;;;;;;;;;4970678;28;20455;-75
2024/03/20 15:49:36;;;;;;;;;;;;;;;;;;4991391;28;19930;-75
2024/03/20 15:52:05;;;;;;;;;;;;;;;;;;4964667;28;19981;-75
2024/03/20 15:54:34;;;;;;;;;;;;;;;;;;4975027;28;20365;-75
2024/03/20 15:57:00;;;;;;;;;;;;;;;;;;4975014;28;20290;-75
2024/03/20 15:59:27;;;;;;;;;;;;;;;;;;4975037;28;19930;-75
2024/03/20 16:01:53;;;;;;;;;;;;;;;;;;4956726;28;20017;-75
2024/03/20 16:04:20;;;;;;;;;;;;;;;;;;4965447;28;19931;-75
2024/03/20 16:06:48;;;;;;;;;;;;;;;;;;4957189;28;19942;-76
2024/03/20 16:09:16;;;;;;;;;;;;;;;;;;4962332;28;19937;-76
2024/03/20 16:11:42;;;;;;;;;;;;;;;;;;4958253;28;19930;-76
2024/03/20 16:14:09;;;;;;;;;;;;;;;;;;4961818;28;19941;-76
2024/03/20 16:16:36;;;;;;;;;;;;;;;;;;4958297;28;19930;-75
2024/03/20 16:19:03;;;;;;;;;;;;;;;;;;4968164;28;20404;-77
2024/03/20 16:21:29;;;;;;;;;;;;;;;;;;4962604;28;19930;-76
2024/03/20 16:23:57;;;;;;;;;;;;;;;;;;4963191;28;19938;-76
2024/03/20 16:26:24;;;;;;;;;;;;;;;;;;4956844;28;19983;-76
2024/03/20 16:28:51;;;;;;;;;;;;;;;;;;4963849;28;19974;-76
2024/03/20 16:31:17;;;;;;;;;;;;;;;;;;4959142;28;20057;-76
2024/03/20 16:33:44;;;;;;;;;;;;;;;;;;4957765;28;19930;-77
2024/03/20 16:36:10;;;;;;;;;;;;;;;;;;4961166;28;20023;-76
2024/03/20 16:38:38;;;;;;;;;;;;;;;;;;4961809;28;20567;-77
2024/03/20 16:41:05;;;;;;;;;;;;;;;;;;4967254;28;20357;-77
2024/03/20 16:43:32;;;;;;;;;;;;;;;;;;4965941;28;20059;-77